sensor_id;sensor_type;location;lat;lon;timestamp;P1;durP1;ratioP1;P2;durP2;ratioP2
11771;SDS011;12556;55.748;13.194;2023-07-20T00:00:05;1.20;;;1.10;;
11771;SDS011;12556;55.748;13.194;2023-07-20T00:02:33;1.87;;;1.20;;
11771;SDS011;12556;55.748;13.194;2023-07-20T00:05:00;1.53;;;1.00;;
11771;SDS011;12556;55.748;13.194;2023-07-20T00:07:28;3.37;;;1.10;;
11771;SDS011;12556;55.748;13.194;2023-07-20T00:09:55;2.50;;;1.13;;
11771;SDS011;12556;55.748;13.194;2023-07-20T00:12:22;1.27;;;1.13;;
11771;SDS011;12556;55.748;13.194;2023-07-20T00:14:49;0.90;;;0.90;;
11771;SDS011;12556;55.748;13.194;2023-07-20T00:17:18;1.43;;;0.90;;
11771;SDS011;12556;55.748;13.194;2023-07-20T00:19:46;1.30;;;0.80;;
11771;SDS011;12556;55.748;13.194;2023-07-20T00:22:13;2.00;;;1.20;;
11771;SDS011;12556;55.748;13.194;2023-07-20T00:24:41;1.43;;;1.10;;
11771;SDS011;12556;55.748;13.194;2023-07-20T00:27:08;0.90;;;0.90;;
11771;SDS011;12556;55.748;13.194;2023-07-20T00:29:35;1.40;;;1.30;;
11771;SDS011;12556;55.748;13.194;2023-07-20T00:32:02;1.60;;;1.17;;
11771;SDS011;12556;55.748;13.194;2023-07-20T00:34:31;2.50;;;1.10;;
11771;SDS011;12556;55.748;13.194;2023-07-20T00:36:58;1.20;;;1.00;;
11771;SDS011;12556;55.748;13.194;2023-07-20T00:39:25;1.27;;;1.00;;
11771;SDS011;12556;55.748;13.194;2023-07-20T00:41:53;1.43;;;1.10;;
11771;SDS011;12556;55.748;13.194;2023-07-20T00:44:20;2.47;;;1.10;;
11771;SDS011;12556;55.748;13.194;2023-07-20T00:46:47;2.97;;;1.40;;
11771;SDS011;12556;55.748;13.194;2023-07-20T00:49:14;2.10;;;1.10;;
11771;SDS011;12556;55.748;13.194;2023-07-20T00:51:41;1.63;;;1.20;;
11771;SDS011;12556;55.748;13.194;2023-07-20T00:54:08;1.10;;;1.00;;
11771;SDS011;12556;55.748;13.194;2023-07-20T00:56:36;1.43;;;1.03;;
11771;SDS011;12556;55.748;13.194;2023-07-20T00:59:05;3.63;;;1.40;;
11771;SDS011;12556;55.748;13.194;2023-07-20T01:01:32;1.37;;;1.23;;
11771;SDS011;12556;55.748;13.194;2023-07-20T01:03:59;1.60;;;1.43;;
11771;SDS011;12556;55.748;13.194;2023-07-20T01:06:29;1.63;;;1.10;;
11771;SDS011;12556;55.748;13.194;2023-07-20T01:09:04;2.53;;;1.37;;
11771;SDS011;12556;55.748;13.194;2023-07-20T01:11:42;2.80;;;1.60;;
11771;SDS011;12556;55.748;13.194;2023-07-20T01:14:15;1.57;;;1.47;;
11771;SDS011;12556;55.748;13.194;2023-07-20T01:16:43;3.10;;;1.50;;
11771;SDS011;12556;55.748;13.194;2023-07-20T01:19:10;4.80;;;1.37;;
11771;SDS011;12556;55.748;13.194;2023-07-20T01:21:39;1.43;;;1.33;;
11771;SDS011;12556;55.748;13.194;2023-07-20T01:30:21;4.10;;;1.87;;
11771;SDS011;12556;55.748;13.194;2023-07-20T01:33:00;1.70;;;1.60;;
11771;SDS011;12556;55.748;13.194;2023-07-20T01:35:29;1.90;;;1.70;;
11771;SDS011;12556;55.748;13.194;2023-07-20T01:37:57;2.80;;;1.63;;
11771;SDS011;12556;55.748;13.194;2023-07-20T01:40:25;3.30;;;1.60;;
11771;SDS011;12556;55.748;13.194;2023-07-20T01:42:53;3.27;;;2.10;;
11771;SDS011;12556;55.748;13.194;2023-07-20T01:45:20;3.07;;;1.60;;
11771;SDS011;12556;55.748;13.194;2023-07-20T01:47:47;3.83;;;1.80;;
11771;SDS011;12556;55.748;13.194;2023-07-20T01:50:15;3.17;;;1.70;;
11771;SDS011;12556;55.748;13.194;2023-07-20T01:52:42;2.07;;;1.60;;
11771;SDS011;12556;55.748;13.194;2023-07-20T01:55:09;1.50;;;1.40;;
11771;SDS011;12556;55.748;13.194;2023-07-20T01:57:36;3.87;;;1.97;;
11771;SDS011;12556;55.748;13.194;2023-07-20T02:00:03;2.17;;;1.73;;
11771;SDS011;12556;55.748;13.194;2023-07-20T02:02:32;3.10;;;1.70;;
11771;SDS011;12556;55.748;13.194;2023-07-20T02:04:58;2.83;;;1.73;;
11771;SDS011;12556;55.748;13.194;2023-07-20T02:07:27;2.03;;;1.60;;
11771;SDS011;12556;55.748;13.194;2023-07-20T02:09:54;4.30;;;1.90;;
11771;SDS011;12556;55.748;13.194;2023-07-20T02:12:21;2.03;;;1.83;;
11771;SDS011;12556;55.748;13.194;2023-07-20T02:14:47;3.57;;;1.60;;
11771;SDS011;12556;55.748;13.194;2023-07-20T02:17:16;2.87;;;1.70;;
11771;SDS011;12556;55.748;13.194;2023-07-20T02:19:43;3.97;;;2.07;;
11771;SDS011;12556;55.748;13.194;2023-07-20T02:22:10;2.33;;;1.70;;
11771;SDS011;12556;55.748;13.194;2023-07-20T02:24:38;2.93;;;1.53;;
11771;SDS011;12556;55.748;13.194;2023-07-20T02:27:05;2.23;;;1.87;;
11771;SDS011;12556;55.748;13.194;2023-07-20T02:29:32;1.70;;;1.60;;
11771;SDS011;12556;55.748;13.194;2023-07-20T02:32:01;3.37;;;1.57;;
11771;SDS011;12556;55.748;13.194;2023-07-20T02:34:28;3.70;;;1.67;;
11771;SDS011;12556;55.748;13.194;2023-07-20T02:36:55;3.03;;;1.77;;
11771;SDS011;12556;55.748;13.194;2023-07-20T02:39:23;3.27;;;1.80;;
11771;SDS011;12556;55.748;13.194;2023-07-20T02:41:51;3.30;;;1.70;;
11771;SDS011;12556;55.748;13.194;2023-07-20T02:44:18;1.80;;;1.70;;
11771;SDS011;12556;55.748;13.194;2023-07-20T02:46:45;4.27;;;2.00;;
11771;SDS011;12556;55.748;13.194;2023-07-20T02:49:14;3.50;;;1.23;;
11771;SDS011;12556;55.748;13.194;2023-07-20T02:51:41;4.67;;;1.43;;
11771;SDS011;12556;55.748;13.194;2023-07-20T02:54:08;2.67;;;1.47;;
11771;SDS011;12556;55.748;13.194;2023-07-20T02:56:35;3.10;;;1.60;;
11771;SDS011;12556;55.748;13.194;2023-07-20T02:59:04;1.83;;;1.40;;
11771;SDS011;12556;55.748;13.194;2023-07-20T03:01:31;2.43;;;1.50;;
11771;SDS011;12556;55.748;13.194;2023-07-20T03:03:57;2.83;;;1.10;;
11771;SDS011;12556;55.748;13.194;2023-07-20T03:06:24;3.73;;;1.80;;
11771;SDS011;12556;55.748;13.194;2023-07-20T03:08:51;2.70;;;1.87;;
11771;SDS011;12556;55.748;13.194;2023-07-20T03:11:19;3.17;;;2.00;;
11771;SDS011;12556;55.748;13.194;2023-07-20T03:13:46;2.67;;;1.57;;
11771;SDS011;12556;55.748;13.194;2023-07-20T03:16:17;3.63;;;1.40;;
11771;SDS011;12556;55.748;13.194;2023-07-20T03:18:44;3.20;;;1.30;;
11771;SDS011;12556;55.748;13.194;2023-07-20T03:21:12;3.40;;;1.20;;
11771;SDS011;12556;55.748;13.194;2023-07-20T03:23:39;1.60;;;1.50;;
11771;SDS011;12556;55.748;13.194;2023-07-20T03:26:06;3.27;;;1.37;;
11771;SDS011;12556;55.748;13.194;2023-07-20T03:28:34;2.83;;;1.30;;
11771;SDS011;12556;55.748;13.194;2023-07-20T03:31:01;4.53;;;1.60;;
11771;SDS011;12556;55.748;13.194;2023-07-20T03:33:30;2.37;;;1.40;;
11771;SDS011;12556;55.748;13.194;2023-07-20T03:35:57;2.20;;;1.23;;
11771;SDS011;12556;55.748;13.194;2023-07-20T03:38:25;3.83;;;1.77;;
11771;SDS011;12556;55.748;13.194;2023-07-20T03:40:53;2.83;;;1.57;;
11771;SDS011;12556;55.748;13.194;2023-07-20T03:43:22;3.10;;;1.57;;
11771;SDS011;12556;55.748;13.194;2023-07-20T03:45:49;2.30;;;1.50;;
11771;SDS011;12556;55.748;13.194;2023-07-20T03:48:17;2.40;;;1.53;;
11771;SDS011;12556;55.748;13.194;2023-07-20T03:50:47;4.23;;;1.50;;
11771;SDS011;12556;55.748;13.194;2023-07-20T03:53:14;3.50;;;1.50;;
11771;SDS011;12556;55.748;13.194;2023-07-20T03:55:44;3.33;;;1.47;;
11771;SDS011;12556;55.748;13.194;2023-07-20T03:58:11;3.80;;;1.50;;
11771;SDS011;12556;55.748;13.194;2023-07-20T04:00:38;4.77;;;1.60;;
11771;SDS011;12556;55.748;13.194;2023-07-20T04:03:05;2.20;;;1.43;;
11771;SDS011;12556;55.748;13.194;2023-07-20T04:05:32;3.07;;;1.63;;
11771;SDS011;12556;55.748;13.194;2023-07-20T04:08:00;4.43;;;1.60;;
11771;SDS011;12556;55.748;13.194;2023-07-20T04:10:28;2.73;;;1.47;;
11771;SDS011;12556;55.748;13.194;2023-07-20T04:12:55;2.53;;;1.70;;
11771;SDS011;12556;55.748;13.194;2023-07-20T04:15:22;2.93;;;1.60;;
11771;SDS011;12556;55.748;13.194;2023-07-20T04:17:49;2.63;;;1.40;;
11771;SDS011;12556;55.748;13.194;2023-07-20T04:20:16;4.00;;;1.70;;
11771;SDS011;12556;55.748;13.194;2023-07-20T04:22:44;3.10;;;1.60;;
11771;SDS011;12556;55.748;13.194;2023-07-20T04:25:12;2.47;;;1.23;;
11771;SDS011;12556;55.748;13.194;2023-07-20T04:27:39;3.27;;;1.70;;
11771;SDS011;12556;55.748;13.194;2023-07-20T04:30:07;2.70;;;1.50;;
11771;SDS011;12556;55.748;13.194;2023-07-20T04:32:35;2.07;;;1.40;;
11771;SDS011;12556;55.748;13.194;2023-07-20T04:35:05;5.17;;;1.83;;
11771;SDS011;12556;55.748;13.194;2023-07-20T04:37:33;3.43;;;1.53;;
11771;SDS011;12556;55.748;13.194;2023-07-20T04:40:00;2.23;;;1.57;;
11771;SDS011;12556;55.748;13.194;2023-07-20T04:42:30;2.50;;;1.47;;
11771;SDS011;12556;55.748;13.194;2023-07-20T04:44:57;6.70;;;1.77;;
11771;SDS011;12556;55.748;13.194;2023-07-20T04:47:23;3.10;;;1.40;;
11771;SDS011;12556;55.748;13.194;2023-07-20T04:49:50;3.50;;;1.30;;
11771;SDS011;12556;55.748;13.194;2023-07-20T04:52:17;5.37;;;1.83;;
11771;SDS011;12556;55.748;13.194;2023-07-20T04:54:44;2.73;;;1.40;;
11771;SDS011;12556;55.748;13.194;2023-07-20T04:57:11;3.37;;;1.53;;
11771;SDS011;12556;55.748;13.194;2023-07-20T04:59:39;1.63;;;1.30;;
11771;SDS011;12556;55.748;13.194;2023-07-20T05:02:06;4.30;;;1.20;;
11771;SDS011;12556;55.748;13.194;2023-07-20T05:04:33;2.03;;;1.17;;
11771;SDS011;12556;55.748;13.194;2023-07-20T05:07:00;1.57;;;1.20;;
11771;SDS011;12556;55.748;13.194;2023-07-20T05:09:27;3.10;;;1.30;;
11771;SDS011;12556;55.748;13.194;2023-07-20T05:11:54;3.63;;;1.23;;
11771;SDS011;12556;55.748;13.194;2023-07-20T05:14:21;2.63;;;1.20;;
11771;SDS011;12556;55.748;13.194;2023-07-20T05:16:49;2.67;;;1.77;;
11771;SDS011;12556;55.748;13.194;2023-07-20T05:19:16;5.67;;;1.80;;
11771;SDS011;12556;55.748;13.194;2023-07-20T05:21:43;2.03;;;1.43;;
11771;SDS011;12556;55.748;13.194;2023-07-20T05:24:10;3.10;;;1.60;;
11771;SDS011;12556;55.748;13.194;2023-07-20T05:26:37;4.20;;;1.73;;
11771;SDS011;12556;55.748;13.194;2023-07-20T05:29:04;4.60;;;2.17;;
11771;SDS011;12556;55.748;13.194;2023-07-20T05:31:31;2.73;;;1.80;;
11771;SDS011;12556;55.748;13.194;2023-07-20T05:33:59;2.83;;;2.00;;
11771;SDS011;12556;55.748;13.194;2023-07-20T05:36:26;5.43;;;2.00;;
11771;SDS011;12556;55.748;13.194;2023-07-20T05:38:53;2.47;;;1.63;;
11771;SDS011;12556;55.748;13.194;2023-07-20T05:41:20;3.20;;;2.27;;
11771;SDS011;12556;55.748;13.194;2023-07-20T05:43:47;3.43;;;2.17;;
11771;SDS011;12556;55.748;13.194;2023-07-20T05:46:14;3.97;;;1.93;;
11771;SDS011;12556;55.748;13.194;2023-07-20T05:48:41;2.87;;;2.53;;
11771;SDS011;12556;55.748;13.194;2023-07-20T05:51:09;5.37;;;1.90;;
11771;SDS011;12556;55.748;13.194;2023-07-20T05:53:36;4.87;;;2.47;;
11771;SDS011;12556;55.748;13.194;2023-07-20T05:56:04;5.13;;;2.50;;
11771;SDS011;12556;55.748;13.194;2023-07-20T05:58:35;3.63;;;2.30;;
11771;SDS011;12556;55.748;13.194;2023-07-20T06:01:03;3.47;;;2.10;;
11771;SDS011;12556;55.748;13.194;2023-07-20T06:03:31;7.73;;;3.17;;
11771;SDS011;12556;55.748;13.194;2023-07-20T06:05:59;4.10;;;2.77;;
11771;SDS011;12556;55.748;13.194;2023-07-20T06:08:27;3.93;;;2.40;;
11771;SDS011;12556;55.748;13.194;2023-07-20T06:10:54;5.07;;;2.73;;
11771;SDS011;12556;55.748;13.194;2023-07-20T06:13:21;5.13;;;2.67;;
11771;SDS011;12556;55.748;13.194;2023-07-20T06:15:48;6.80;;;2.83;;
11771;SDS011;12556;55.748;13.194;2023-07-20T06:18:15;3.10;;;2.40;;
11771;SDS011;12556;55.748;13.194;2023-07-20T06:20:42;7.53;;;2.53;;
11771;SDS011;12556;55.748;13.194;2023-07-20T06:23:14;4.57;;;2.50;;
11771;SDS011;12556;55.748;13.194;2023-07-20T06:25:42;4.30;;;2.60;;
11771;SDS011;12556;55.748;13.194;2023-07-20T06:28:09;4.70;;;2.37;;
11771;SDS011;12556;55.748;13.194;2023-07-20T06:30:36;5.67;;;2.80;;
11771;SDS011;12556;55.748;13.194;2023-07-20T06:33:03;4.40;;;2.40;;
11771;SDS011;12556;55.748;13.194;2023-07-20T06:35:30;4.23;;;2.53;;
11771;SDS011;12556;55.748;13.194;2023-07-20T06:37:57;4.67;;;2.50;;
11771;SDS011;12556;55.748;13.194;2023-07-20T06:40:25;3.67;;;2.13;;
11771;SDS011;12556;55.748;13.194;2023-07-20T06:42:53;3.10;;;2.23;;
11771;SDS011;12556;55.748;13.194;2023-07-20T06:45:20;5.27;;;2.77;;
11771;SDS011;12556;55.748;13.194;2023-07-20T06:47:47;3.60;;;2.20;;
11771;SDS011;12556;55.748;13.194;2023-07-20T06:50:14;4.83;;;2.47;;
11771;SDS011;12556;55.748;13.194;2023-07-20T06:52:41;5.27;;;2.30;;
11771;SDS011;12556;55.748;13.194;2023-07-20T06:55:08;7.30;;;2.43;;
11771;SDS011;12556;55.748;13.194;2023-07-20T06:57:35;5.07;;;2.40;;
11771;SDS011;12556;55.748;13.194;2023-07-20T07:00:03;5.13;;;2.80;;
11771;SDS011;12556;55.748;13.194;2023-07-20T07:02:31;3.83;;;2.55;;
11771;SDS011;12556;55.748;13.194;2023-07-20T07:04:59;3.10;;;2.40;;
11771;SDS011;12556;55.748;13.194;2023-07-20T07:07:26;4.30;;;2.30;;
11771;SDS011;12556;55.748;13.194;2023-07-20T07:09:53;3.28;;;1.90;;
11771;SDS011;12556;55.748;13.194;2023-07-20T07:12:20;3.35;;;1.90;;
11771;SDS011;12556;55.748;13.194;2023-07-20T07:14:47;4.63;;;2.38;;
11771;SDS011;12556;55.748;13.194;2023-07-20T07:17:15;6.85;;;2.42;;
11771;SDS011;12556;55.748;13.194;2023-07-20T07:19:42;3.05;;;2.05;;
11771;SDS011;12556;55.748;13.194;2023-07-20T07:22:09;4.80;;;2.50;;
11771;SDS011;12556;55.748;13.194;2023-07-20T07:24:36;3.20;;;2.33;;
11771;SDS011;12556;55.748;13.194;2023-07-20T07:27:05;3.97;;;2.10;;
11771;SDS011;12556;55.748;13.194;2023-07-20T07:29:32;2.65;;;1.73;;
11771;SDS011;12556;55.748;13.194;2023-07-20T07:31:59;3.92;;;1.80;;
11771;SDS011;12556;55.748;13.194;2023-07-20T07:34:28;4.93;;;2.20;;
11771;SDS011;12556;55.748;13.194;2023-07-20T07:36:55;3.75;;;2.17;;
11771;SDS011;12556;55.748;13.194;2023-07-20T07:39:21;4.53;;;1.80;;
11771;SDS011;12556;55.748;13.194;2023-07-20T07:41:49;4.05;;;2.13;;
11771;SDS011;12556;55.748;13.194;2023-07-20T07:44:16;2.97;;;2.20;;
11771;SDS011;12556;55.748;13.194;2023-07-20T07:46:43;3.78;;;1.90;;
11771;SDS011;12556;55.748;13.194;2023-07-20T07:49:10;6.57;;;2.05;;
11771;SDS011;12556;55.748;13.194;2023-07-20T07:51:39;4.07;;;1.90;;
11771;SDS011;12556;55.748;13.194;2023-07-20T07:54:06;3.70;;;1.92;;
11771;SDS011;12556;55.748;13.194;2023-07-20T07:56:33;5.00;;;1.83;;
11771;SDS011;12556;55.748;13.194;2023-07-20T07:59:00;4.35;;;1.95;;
11771;SDS011;12556;55.748;13.194;2023-07-20T08:01:28;6.85;;;2.72;;
11771;SDS011;12556;55.748;13.194;2023-07-20T08:03:55;3.97;;;2.40;;
11771;SDS011;12556;55.748;13.194;2023-07-20T08:06:22;4.40;;;2.42;;
11771;SDS011;12556;55.748;13.194;2023-07-20T08:08:50;4.78;;;2.60;;
11771;SDS011;12556;55.748;13.194;2023-07-20T08:11:17;3.33;;;2.10;;
11771;SDS011;12556;55.748;13.194;2023-07-20T08:13:44;4.13;;;2.45;;
11771;SDS011;12556;55.748;13.194;2023-07-20T08:16:11;5.65;;;2.70;;
11771;SDS011;12556;55.748;13.194;2023-07-20T08:18:39;5.90;;;2.78;;
11771;SDS011;12556;55.748;13.194;2023-07-20T08:21:06;3.70;;;2.47;;
11771;SDS011;12556;55.748;13.194;2023-07-20T08:23:32;6.72;;;2.75;;
11771;SDS011;12556;55.748;13.194;2023-07-20T08:26:01;4.20;;;2.33;;
11771;SDS011;12556;55.748;13.194;2023-07-20T08:28:28;5.33;;;2.60;;
11771;SDS011;12556;55.748;13.194;2023-07-20T08:30:54;5.80;;;2.07;;
11771;SDS011;12556;55.748;13.194;2023-07-20T08:33:21;4.87;;;2.30;;
11771;SDS011;12556;55.748;13.194;2023-07-20T08:35:49;3.33;;;2.00;;
11771;SDS011;12556;55.748;13.194;2023-07-20T08:38:16;5.57;;;1.97;;
11771;SDS011;12556;55.748;13.194;2023-07-20T08:40:43;3.10;;;1.80;;
11771;SDS011;12556;55.748;13.194;2023-07-20T08:43:12;2.90;;;1.80;;
11771;SDS011;12556;55.748;13.194;2023-07-20T08:45:41;4.97;;;2.37;;
11771;SDS011;12556;55.748;13.194;2023-07-20T08:48:10;4.30;;;1.70;;
11771;SDS011;12556;55.748;13.194;2023-07-20T08:50:38;2.27;;;1.77;;
11771;SDS011;12556;55.748;13.194;2023-07-20T08:53:06;3.03;;;1.50;;
11771;SDS011;12556;55.748;13.194;2023-07-20T08:55:35;2.47;;;1.87;;
11771;SDS011;12556;55.748;13.194;2023-07-20T08:58:02;2.43;;;1.63;;
11771;SDS011;12556;55.748;13.194;2023-07-20T09:00:33;3.97;;;1.90;;
11771;SDS011;12556;55.748;13.194;2023-07-20T09:03:02;3.75;;;1.75;;
11771;SDS011;12556;55.748;13.194;2023-07-20T09:05:29;4.47;;;1.83;;
11771;SDS011;12556;55.748;13.194;2023-07-20T09:07:56;2.83;;;1.65;;
11771;SDS011;12556;55.748;13.194;2023-07-20T09:10:23;3.77;;;1.80;;
11771;SDS011;12556;55.748;13.194;2023-07-20T09:12:50;3.63;;;1.77;;
11771;SDS011;12556;55.748;13.194;2023-07-20T09:15:18;5.97;;;2.30;;
11771;SDS011;12556;55.748;13.194;2023-07-20T09:17:47;3.92;;;1.70;;
11771;SDS011;12556;55.748;13.194;2023-07-20T09:20:15;3.78;;;1.67;;
11771;SDS011;12556;55.748;13.194;2023-07-20T09:22:43;4.97;;;2.15;;
11771;SDS011;12556;55.748;13.194;2023-07-20T09:25:11;6.25;;;2.05;;
11771;SDS011;12556;55.748;13.194;2023-07-20T09:27:40;4.55;;;2.20;;
11771;SDS011;12556;55.748;13.194;2023-07-20T09:30:08;4.00;;;1.80;;
11771;SDS011;12556;55.748;13.194;2023-07-20T09:32:38;1.67;;;1.20;;
11771;SDS011;12556;55.748;13.194;2023-07-20T09:35:11;5.55;;;1.80;;
11771;SDS011;12556;55.748;13.194;2023-07-20T09:37:40;3.58;;;1.20;;
11771;SDS011;12556;55.748;13.194;2023-07-20T09:40:11;2.30;;;1.25;;
11771;SDS011;12556;55.748;13.194;2023-07-20T09:42:41;4.00;;;1.15;;
11771;SDS011;12556;55.748;13.194;2023-07-20T09:45:08;2.33;;;1.27;;
11771;SDS011;12556;55.748;13.194;2023-07-20T09:47:36;1.70;;;1.00;;
11771;SDS011;12556;55.748;13.194;2023-07-20T09:50:04;4.32;;;1.20;;
11771;SDS011;12556;55.748;13.194;2023-07-20T09:52:36;6.32;;;1.67;;
11771;SDS011;12556;55.748;13.194;2023-07-20T09:55:06;3.50;;;1.38;;
11771;SDS011;12556;55.748;13.194;2023-07-20T09:57:34;1.65;;;1.13;;
11771;SDS011;12556;55.748;13.194;2023-07-20T10:00:02;3.90;;;1.45;;
11771;SDS011;12556;55.748;13.194;2023-07-20T10:02:37;2.90;;;1.30;;
11771;SDS011;12556;55.748;13.194;2023-07-20T10:05:08;2.15;;;1.20;;
11771;SDS011;12556;55.748;13.194;2023-07-20T10:07:40;5.43;;;1.73;;
11771;SDS011;12556;55.748;13.194;2023-07-20T10:10:11;2.92;;;1.40;;
11771;SDS011;12556;55.748;13.194;2023-07-20T10:12:39;3.90;;;1.38;;
11771;SDS011;12556;55.748;13.194;2023-07-20T10:15:10;2.63;;;1.27;;
11771;SDS011;12556;55.748;13.194;2023-07-20T10:17:42;3.25;;;1.40;;
11771;SDS011;12556;55.748;13.194;2023-07-20T10:20:19;3.92;;;1.73;;
11771;SDS011;12556;55.748;13.194;2023-07-20T10:22:49;2.42;;;1.35;;
11771;SDS011;12556;55.748;13.194;2023-07-20T10:25:20;3.20;;;1.17;;
11771;SDS011;12556;55.748;13.194;2023-07-20T10:27:48;2.65;;;1.30;;
11771;SDS011;12556;55.748;13.194;2023-07-20T10:30:15;4.20;;;1.42;;
11771;SDS011;12556;55.748;13.194;2023-07-20T10:32:43;2.67;;;1.30;;
11771;SDS011;12556;55.748;13.194;2023-07-20T10:35:14;3.40;;;1.50;;
11771;SDS011;12556;55.748;13.194;2023-07-20T10:40:31;3.90;;;1.63;;
11771;SDS011;12556;55.748;13.194;2023-07-20T10:43:00;2.10;;;1.33;;
11771;SDS011;12556;55.748;13.194;2023-07-20T10:45:35;4.25;;;1.50;;
11771;SDS011;12556;55.748;13.194;2023-07-20T10:48:05;6.22;;;1.05;;
11771;SDS011;12556;55.748;13.194;2023-07-20T10:50:40;2.53;;;0.98;;
11771;SDS011;12556;55.748;13.194;2023-07-20T10:53:12;1.55;;;1.05;;
11771;SDS011;12556;55.748;13.194;2023-07-20T10:55:40;1.65;;;0.70;;
11771;SDS011;12556;55.748;13.194;2023-07-20T10:58:09;1.70;;;0.60;;
11771;SDS011;12556;55.748;13.194;2023-07-20T11:00:37;0.82;;;0.57;;
11771;SDS011;12556;55.748;13.194;2023-07-20T11:03:26;0.85;;;0.63;;
11771;SDS011;12556;55.748;13.194;2023-07-20T11:05:54;2.10;;;0.80;;
11771;SDS011;12556;55.748;13.194;2023-07-20T11:11:24;2.15;;;0.93;;
11771;SDS011;12556;55.748;13.194;2023-07-20T11:13:56;2.78;;;1.10;;
11771;SDS011;12556;55.748;13.194;2023-07-20T11:16:34;2.85;;;1.13;;
11771;SDS011;12556;55.748;13.194;2023-07-20T11:19:03;1.77;;;0.70;;
11771;SDS011;12556;55.748;13.194;2023-07-20T11:21:35;2.92;;;0.88;;
11771;SDS011;12556;55.748;13.194;2023-07-20T11:24:03;1.33;;;0.95;;
11771;SDS011;12556;55.748;13.194;2023-07-20T11:26:40;2.05;;;0.90;;
11771;SDS011;12556;55.748;13.194;2023-07-20T11:29:08;2.33;;;1.10;;
11771;SDS011;12556;55.748;13.194;2023-07-20T11:31:35;1.13;;;0.70;;
11771;SDS011;12556;55.748;13.194;2023-07-20T11:34:03;2.15;;;0.93;;
11771;SDS011;12556;55.748;13.194;2023-07-20T11:36:30;0.65;;;0.55;;
11771;SDS011;12556;55.748;13.194;2023-07-20T11:38:57;1.77;;;0.90;;
11771;SDS011;12556;55.748;13.194;2023-07-20T11:41:25;1.00;;;0.80;;
11771;SDS011;12556;55.748;13.194;2023-07-20T11:43:53;0.80;;;0.77;;
11771;SDS011;12556;55.748;13.194;2023-07-20T11:46:20;2.45;;;0.90;;
11771;SDS011;12556;55.748;13.194;2023-07-20T11:48:47;2.20;;;0.80;;
11771;SDS011;12556;55.748;13.194;2023-07-20T11:51:14;1.02;;;0.68;;
11771;SDS011;12556;55.748;13.194;2023-07-20T11:53:42;1.27;;;0.80;;
11771;SDS011;12556;55.748;13.194;2023-07-20T11:56:10;0.80;;;0.60;;
11771;SDS011;12556;55.748;13.194;2023-07-20T11:58:41;1.30;;;1.00;;
11771;SDS011;12556;55.748;13.194;2023-07-20T12:01:11;2.20;;;1.05;;
11771;SDS011;12556;55.748;13.194;2023-07-20T12:03:38;0.68;;;0.60;;
11771;SDS011;12556;55.748;13.194;2023-07-20T12:06:08;3.13;;;1.00;;
11771;SDS011;12556;55.748;13.194;2023-07-20T12:08:37;2.83;;;1.00;;
11771;SDS011;12556;55.748;13.194;2023-07-20T12:11:05;1.67;;;0.80;;
11771;SDS011;12556;55.748;13.194;2023-07-20T12:13:36;1.77;;;0.75;;
11771;SDS011;12556;55.748;13.194;2023-07-20T12:16:08;1.83;;;0.70;;
11771;SDS011;12556;55.748;13.194;2023-07-20T12:18:38;1.83;;;0.70;;
11771;SDS011;12556;55.748;13.194;2023-07-20T12:21:05;1.40;;;0.70;;
11771;SDS011;12556;55.748;13.194;2023-07-20T12:23:36;1.05;;;0.73;;
11771;SDS011;12556;55.748;13.194;2023-07-20T12:26:08;1.10;;;0.90;;
11771;SDS011;12556;55.748;13.194;2023-07-20T12:28:38;1.98;;;1.00;;
11771;SDS011;12556;55.748;13.194;2023-07-20T12:31:07;2.50;;;0.70;;
11771;SDS011;12556;55.748;13.194;2023-07-20T12:33:36;1.80;;;0.88;;
11771;SDS011;12556;55.748;13.194;2023-07-20T12:36:03;1.23;;;0.70;;
11771;SDS011;12556;55.748;13.194;2023-07-20T12:38:31;1.65;;;0.80;;
11771;SDS011;12556;55.748;13.194;2023-07-20T12:40:59;4.90;;;0.65;;
11771;SDS011;12556;55.748;13.194;2023-07-20T12:43:27;3.28;;;1.10;;
11771;SDS011;12556;55.748;13.194;2023-07-20T12:45:54;1.42;;;0.80;;
11771;SDS011;12556;55.748;13.194;2023-07-20T12:48:21;2.80;;;0.77;;
11771;SDS011;12556;55.748;13.194;2023-07-20T12:50:49;3.65;;;1.10;;
11771;SDS011;12556;55.748;13.194;2023-07-20T12:53:16;1.23;;;0.70;;
11771;SDS011;12556;55.748;13.194;2023-07-20T12:55:44;1.58;;;0.77;;
11771;SDS011;12556;55.748;13.194;2023-07-20T12:58:11;1.13;;;0.70;;
11771;SDS011;12556;55.748;13.194;2023-07-20T13:00:39;0.73;;;0.63;;
11771;SDS011;12556;55.748;13.194;2023-07-20T13:03:07;0.75;;;0.73;;
11771;SDS011;12556;55.748;13.194;2023-07-20T13:05:34;1.75;;;1.00;;
11771;SDS011;12556;55.748;13.194;2023-07-20T13:08:02;1.10;;;0.60;;
11771;SDS011;12556;55.748;13.194;2023-07-20T13:10:30;1.33;;;0.70;;
11771;SDS011;12556;55.748;13.194;2023-07-20T13:12:57;2.85;;;0.80;;
11771;SDS011;12556;55.748;13.194;2023-07-20T13:15:29;0.82;;;0.75;;
11771;SDS011;12556;55.748;13.194;2023-07-20T13:17:57;1.92;;;0.70;;
11771;SDS011;12556;55.748;13.194;2023-07-20T13:20:25;1.52;;;0.80;;
11771;SDS011;12556;55.748;13.194;2023-07-20T13:22:53;0.70;;;0.60;;
11771;SDS011;12556;55.748;13.194;2023-07-20T13:25:21;1.67;;;0.70;;
11771;SDS011;12556;55.748;13.194;2023-07-20T13:27:48;1.10;;;0.70;;
11771;SDS011;12556;55.748;13.194;2023-07-20T13:30:15;2.35;;;0.82;;
11771;SDS011;12556;55.748;13.194;2023-07-20T13:32:43;3.10;;;0.88;;
11771;SDS011;12556;55.748;13.194;2023-07-20T13:35:09;1.48;;;0.75;;
11771;SDS011;12556;55.748;13.194;2023-07-20T13:37:37;2.38;;;0.80;;
11771;SDS011;12556;55.748;13.194;2023-07-20T13:40:04;4.45;;;1.50;;
11771;SDS011;12556;55.748;13.194;2023-07-20T13:42:35;3.03;;;1.02;;
11771;SDS011;12556;55.748;13.194;2023-07-20T13:45:02;1.67;;;1.10;;
11771;SDS011;12556;55.748;13.194;2023-07-20T13:47:30;2.20;;;0.98;;
11771;SDS011;12556;55.748;13.194;2023-07-20T13:49:57;4.22;;;0.90;;
11771;SDS011;12556;55.748;13.194;2023-07-20T13:52:23;1.77;;;0.98;;
11771;SDS011;12556;55.748;13.194;2023-07-20T13:54:50;1.38;;;0.95;;
11771;SDS011;12556;55.748;13.194;2023-07-20T13:57:17;0.60;;;0.60;;
11771;SDS011;12556;55.748;13.194;2023-07-20T13:59:46;1.00;;;0.90;;
11771;SDS011;12556;55.748;13.194;2023-07-20T14:02:13;3.67;;;1.08;;
11771;SDS011;12556;55.748;13.194;2023-07-20T14:04:41;0.88;;;0.50;;
11771;SDS011;12556;55.748;13.194;2023-07-20T14:07:08;2.92;;;0.90;;
11771;SDS011;12556;55.748;13.194;2023-07-20T14:09:36;1.95;;;0.80;;
11771;SDS011;12556;55.748;13.194;2023-07-20T14:12:03;1.42;;;0.75;;
11771;SDS011;12556;55.748;13.194;2023-07-20T14:14:31;1.92;;;0.88;;
11771;SDS011;12556;55.748;13.194;2023-07-20T14:16:59;3.83;;;0.85;;
11771;SDS011;12556;55.748;13.194;2023-07-20T14:19:26;2.85;;;0.77;;
11771;SDS011;12556;55.748;13.194;2023-07-20T14:21:53;1.25;;;0.70;;
11771;SDS011;12556;55.748;13.194;2023-07-20T14:24:20;0.70;;;0.50;;
11771;SDS011;12556;55.748;13.194;2023-07-20T14:26:47;2.15;;;0.90;;
11771;SDS011;12556;55.748;13.194;2023-07-20T14:29:14;3.40;;;0.77;;
11771;SDS011;12556;55.748;13.194;2023-07-20T14:31:43;2.22;;;1.35;;
11771;SDS011;12556;55.748;13.194;2023-07-20T14:34:11;2.10;;;0.65;;
11771;SDS011;12556;55.748;13.194;2023-07-20T14:36:39;1.02;;;0.80;;
11771;SDS011;12556;55.748;13.194;2023-07-20T14:39:06;3.00;;;0.80;;
11771;SDS011;12556;55.748;13.194;2023-07-20T14:41:33;2.27;;;0.70;;
11771;SDS011;12556;55.748;13.194;2023-07-20T14:44:00;1.67;;;0.70;;
11771;SDS011;12556;55.748;13.194;2023-07-20T14:46:27;1.40;;;0.70;;
11771;SDS011;12556;55.748;13.194;2023-07-20T14:48:54;3.20;;;0.90;;